This is the latest recevied weather packets stored in our database for station/object KD0JCP-10. If no packets are shown the sender has not sent any weather packets the latest 10 day(s).
| Time | Temp. | Humidity | Pressure | Rain* | Wind** | Luminosity | Snow |
|---|---|---|---|---|---|---|---|
| 1777644685 | 7.78° C | 63% | 1021.6 hPa | 0 mm | - | - | - |
| 1777644385 | 7.22° C | 64% | 1021.6 hPa | 0 mm | - | - | - |
| 1777644085 | 7.22° C | 63% | 1021.6 hPa | 0 mm | - | - | - |
| 1777643785 | 7.78° C | 62% | 1021.6 hPa | 0 mm | - | - | - |
| 1777643485 | 7.78° C | 61% | 1021.6 hPa | 0 mm | - | - | - |
| 1777643185 | 7.22° C | 64% | 1021.5 hPa | 0 mm | - | - | - |
| 1777642885 | 7.22° C | 65% | 1021.5 hPa | 0 mm | - | - | - |
| 1777642585 | 6.67° C | 67% | 1021.5 hPa | 0 mm | - | - | - |
| 1777642285 | 6.67° C | 66% | 1021.4 hPa | 0 mm | - | - | - |
| 1777641985 | 6.67° C | 67% | 1021.5 hPa | 0 mm | - | - | - |
| 1777641685 | 6.11° C | 69% | 1021.5 hPa | 0 mm | - | - | - |
| 1777641385 | 5.56° C | 71% | 1021.4 hPa | 0 mm | - | - | - |
| 1777641085 | 5.56° C | 70% | 1021.4 hPa | 0 mm | - | - | - |
| 1777640785 | 5.56° C | 71% | 1021.3 hPa | 0 mm | - | - | - |
| 1777640485 | 5° C | 72% | 1021.3 hPa | 0 mm | - | - | - |
| 1777640185 | 5° C | 73% | 1021.3 hPa | 0 mm | - | - | - |
| 1777639885 | 4.44° C | 74% | 1021.3 hPa | 0 mm | - | - | - |
| 1777638685 | 3.33° C | 78% | 1021.3 hPa | 0 mm | - | - | - |
| 1777638385 | 2.78° C | 79% | 1021.4 hPa | 0 mm | - | - | - |
| 1777638085 | 2.78° C | 79% | 1021.3 hPa | 0 mm | - | - | - |
| 1777637785 | 2.78° C | 80% | 1021.3 hPa | 0 mm | - | - | - |
| 1777637485 | 2.22° C | 81% | 1021.4 hPa | 0 mm | - | - | - |
| 1777637185 | 2.22° C | 81% | 1021.3 hPa | 0 mm | - | - | - |
| 1777636885 | 2.22° C | 81% | 1021.3 hPa | 0 mm | - | - | - |
| 1777636585 | 2.22° C | 81% | 1021.3 hPa | 0 mm | - | - | - |
* Rain latest hour (hover to see other rain measurements)
** Current wind speed in m/s (hover to see current wind gust speed)